sensor_id;sensor_type;location;lat;lon;timestamp;P1;durP1;ratioP1;P2;durP2;ratioP2
84187;SDS011;77358;45.648;13.764;2024-03-23T00:52:46;5.10;;;3.22;;
84187;SDS011;77358;45.648;13.764;2024-03-23T00:55:12;4.93;;;3.13;;
84187;SDS011;77358;45.648;13.764;2024-03-23T00:57:38;4.60;;;3.45;;
84187;SDS011;77358;45.648;13.764;2024-03-23T01:00:04;3.03;;;2.67;;
84187;SDS011;77358;45.648;13.764;2024-03-23T01:02:31;3.33;;;2.95;;
84187;SDS011;77358;45.648;13.764;2024-03-23T01:04:57;5.95;;;3.17;;
84187;SDS011;77358;45.648;13.764;2024-03-23T01:07:23;3.75;;;2.80;;
84187;SDS011;77358;45.648;13.764;2024-03-23T01:09:49;3.35;;;3.05;;
84187;SDS011;77358;45.648;13.764;2024-03-23T01:12:14;3.03;;;2.83;;
84187;SDS011;77358;45.648;13.764;2024-03-23T01:14:40;2.90;;;2.70;;
84187;SDS011;77358;45.648;13.764;2024-03-23T01:17:07;3.58;;;3.25;;
84187;SDS011;77358;45.648;13.764;2024-03-23T01:19:33;3.85;;;3.40;;
84187;SDS011;77358;45.648;13.764;2024-03-23T01:21:59;4.60;;;3.67;;
84187;SDS011;77358;45.648;13.764;2024-03-23T01:24:25;5.30;;;3.70;;
84187;SDS011;77358;45.648;13.764;2024-03-23T01:26:51;5.95;;;4.00;;
84187;SDS011;77358;45.648;13.764;2024-03-23T01:29:17;5.30;;;3.47;;
84187;SDS011;77358;45.648;13.764;2024-03-23T01:31:42;5.57;;;3.67;;
84187;SDS011;77358;45.648;13.764;2024-03-23T01:34:09;5.03;;;3.63;;
84187;SDS011;77358;45.648;13.764;2024-03-23T01:36:35;4.30;;;3.90;;
84187;SDS011;77358;45.648;13.764;2024-03-23T01:39:00;4.32;;;3.90;;
84187;SDS011;77358;45.648;13.764;2024-03-23T01:41:26;7.03;;;4.00;;
84187;SDS011;77358;45.648;13.764;2024-03-23T01:43:52;5.60;;;3.65;;
84187;SDS011;77358;45.648;13.764;2024-03-23T01:46:20;3.78;;;3.45;;
84187;SDS011;77358;45.648;13.764;2024-03-23T01:48:46;5.05;;;3.85;;
84187;SDS011;77358;45.648;13.764;2024-03-23T01:51:12;7.70;;;4.20;;
84187;SDS011;77358;45.648;13.764;2024-03-23T01:53:38;4.95;;;4.55;;
84187;SDS011;77358;45.648;13.764;2024-03-23T01:56:04;5.80;;;4.65;;
84187;SDS011;77358;45.648;13.764;2024-03-23T01:58:31;8.23;;;5.80;;
84187;SDS011;77358;45.648;13.764;2024-03-23T02:00:57;7.82;;;6.20;;
84187;SDS011;77358;45.648;13.764;2024-03-23T02:05:50;3.83;;;3.45;;
84187;SDS011;77358;45.648;13.764;2024-03-23T02:08:20;8.13;;;5.03;;
84187;SDS011;77358;45.648;13.764;2024-03-23T02:10:47;10.20;;;6.03;;
84187;SDS011;77358;45.648;13.764;2024-03-23T02:13:16;10.90;;;6.63;;
84187;SDS011;77358;45.648;13.764;2024-03-23T02:15:43;10.98;;;5.93;;
84187;SDS011;77358;45.648;13.764;2024-03-23T02:18:09;5.60;;;5.10;;
84187;SDS011;77358;45.648;13.764;2024-03-23T02:20:36;7.20;;;5.38;;
84187;SDS011;77358;45.648;13.764;2024-03-23T02:23:03;5.03;;;4.28;;
84187;SDS011;77358;45.648;13.764;2024-03-23T02:25:31;8.90;;;4.40;;
84187;SDS011;77358;45.648;13.764;2024-03-23T02:27:57;6.75;;;4.47;;
84187;SDS011;77358;45.648;13.764;2024-03-23T02:30:23;5.88;;;4.50;;
84187;SDS011;77358;45.648;13.764;2024-03-23T02:32:50;4.63;;;4.15;;
84187;SDS011;77358;45.648;13.764;2024-03-23T02:35:16;4.40;;;4.00;;
84187;SDS011;77358;45.648;13.764;2024-03-23T02:37:42;4.20;;;3.83;;
84187;SDS011;77358;45.648;13.764;2024-03-23T02:40:08;5.40;;;3.67;;
84187;SDS011;77358;45.648;13.764;2024-03-23T02:42:34;4.95;;;4.40;;
84187;SDS011;77358;45.648;13.764;2024-03-23T02:45:00;4.18;;;3.85;;
84187;SDS011;77358;45.648;13.764;2024-03-23T02:47:26;7.65;;;4.28;;
84187;SDS011;77358;45.648;13.764;2024-03-23T02:49:52;7.35;;;3.97;;
84187;SDS011;77358;45.648;13.764;2024-03-23T02:52:19;4.10;;;2.97;;
84187;SDS011;77358;45.648;13.764;2024-03-23T02:54:45;8.50;;;3.40;;
84187;SDS011;77358;45.648;13.764;2024-03-23T02:57:11;3.58;;;2.95;;
84187;SDS011;77358;45.648;13.764;2024-03-23T02:59:37;4.20;;;3.20;;
84187;SDS011;77358;45.648;13.764;2024-03-23T03:02:03;3.78;;;3.33;;
84187;SDS011;77358;45.648;13.764;2024-03-23T03:04:30;3.58;;;3.17;;
84187;SDS011;77358;45.648;13.764;2024-03-23T03:06:56;4.57;;;3.83;;
84187;SDS011;77358;45.648;13.764;2024-03-23T03:09:22;3.85;;;3.47;;
84187;SDS011;77358;45.648;13.764;2024-03-23T03:11:48;4.93;;;3.45;;
84187;SDS011;77358;45.648;13.764;2024-03-23T03:14:13;5.60;;;3.55;;
84187;SDS011;77358;45.648;13.764;2024-03-23T03:16:39;3.70;;;3.25;;
84187;SDS011;77358;45.648;13.764;2024-03-23T03:19:05;4.18;;;3.65;;
84187;SDS011;77358;45.648;13.764;2024-03-23T03:21:31;6.22;;;3.55;;
84187;SDS011;77358;45.648;13.764;2024-03-23T03:23:57;5.57;;;3.95;;
84187;SDS011;77358;45.648;13.764;2024-03-23T03:26:23;8.80;;;4.20;;
84187;SDS011;77358;45.648;13.764;2024-03-23T03:28:50;4.85;;;4.30;;
84187;SDS011;77358;45.648;13.764;2024-03-23T03:31:16;4.65;;;4.03;;
84187;SDS011;77358;45.648;13.764;2024-03-23T03:33:42;4.22;;;3.50;;
84187;SDS011;77358;45.648;13.764;2024-03-23T03:36:09;8.90;;;4.20;;
84187;SDS011;77358;45.648;13.764;2024-03-23T03:38:35;5.85;;;4.07;;
84187;SDS011;77358;45.648;13.764;2024-03-23T03:41:01;6.70;;;3.75;;
84187;SDS011;77358;45.648;13.764;2024-03-23T03:43:26;4.55;;;4.15;;
84187;SDS011;77358;45.648;13.764;2024-03-23T03:45:53;5.45;;;3.75;;
84187;SDS011;77358;45.648;13.764;2024-03-23T03:48:19;5.32;;;3.85;;
84187;SDS011;77358;45.648;13.764;2024-03-23T03:50:46;5.88;;;3.55;;
84187;SDS011;77358;45.648;13.764;2024-03-23T03:53:12;6.85;;;4.28;;
84187;SDS011;77358;45.648;13.764;2024-03-23T03:55:38;7.63;;;3.33;;
84187;SDS011;77358;45.648;13.764;2024-03-23T03:58:04;4.38;;;3.45;;
84187;SDS011;77358;45.648;13.764;2024-03-23T04:00:30;5.43;;;3.38;;
84187;SDS011;77358;45.648;13.764;2024-03-23T04:02:56;6.32;;;3.30;;
84187;SDS011;77358;45.648;13.764;2024-03-23T04:05:26;3.53;;;2.88;;
84187;SDS011;77358;45.648;13.764;2024-03-23T04:07:51;3.45;;;2.50;;
84187;SDS011;77358;45.648;13.764;2024-03-23T04:10:17;5.03;;;2.60;;
84187;SDS011;77358;45.648;13.764;2024-03-23T04:12:44;3.00;;;2.70;;
84187;SDS011;77358;45.648;13.764;2024-03-23T04:15:12;4.45;;;2.35;;
84187;SDS011;77358;45.648;13.764;2024-03-23T04:17:38;3.42;;;3.10;;
84187;SDS011;77358;45.648;13.764;2024-03-23T04:20:05;4.25;;;3.10;;
84187;SDS011;77358;45.648;13.764;2024-03-23T04:22:34;6.20;;;3.20;;
84187;SDS011;77358;45.648;13.764;2024-03-23T04:25:00;3.63;;;2.97;;
84187;SDS011;77358;45.648;13.764;2024-03-23T04:27:31;3.00;;;2.70;;
84187;SDS011;77358;45.648;13.764;2024-03-23T04:30:01;4.40;;;3.13;;
84187;SDS011;77358;45.648;13.764;2024-03-23T04:32:27;3.20;;;2.90;;
84187;SDS011;77358;45.648;13.764;2024-03-23T04:34:54;3.08;;;2.78;;
84187;SDS011;77358;45.648;13.764;2024-03-23T04:37:23;2.92;;;2.45;;
84187;SDS011;77358;45.648;13.764;2024-03-23T04:39:49;5.97;;;2.75;;
84187;SDS011;77358;45.648;13.764;2024-03-23T04:42:14;3.28;;;2.80;;
84187;SDS011;77358;45.648;13.764;2024-03-23T04:44:40;4.22;;;3.08;;
84187;SDS011;77358;45.648;13.764;2024-03-23T04:47:06;3.67;;;3.15;;
84187;SDS011;77358;45.648;13.764;2024-03-23T04:49:32;5.75;;;3.10;;
84187;SDS011;77358;45.648;13.764;2024-03-23T04:51:58;3.70;;;3.30;;
84187;SDS011;77358;45.648;13.764;2024-03-23T04:54:24;6.38;;;3.47;;
84187;SDS011;77358;45.648;13.764;2024-03-23T04:56:50;3.40;;;2.80;;
84187;SDS011;77358;45.648;13.764;2024-03-23T04:59:16;4.35;;;3.10;;
84187;SDS011;77358;45.648;13.764;2024-03-23T05:01:42;6.30;;;3.20;;
84187;SDS011;77358;45.648;13.764;2024-03-23T05:04:08;6.50;;;3.30;;
84187;SDS011;77358;45.648;13.764;2024-03-23T05:06:34;4.55;;;2.92;;
84187;SDS011;77358;45.648;13.764;2024-03-23T05:08:59;7.68;;;3.10;;
84187;SDS011;77358;45.648;13.764;2024-03-23T05:11:27;3.45;;;3.10;;
84187;SDS011;77358;45.648;13.764;2024-03-23T05:13:53;3.47;;;2.97;;
84187;SDS011;77358;45.648;13.764;2024-03-23T05:16:19;6.63;;;3.30;;
84187;SDS011;77358;45.648;13.764;2024-03-23T05:18:45;15.45;;;3.20;;
84187;SDS011;77358;45.648;13.764;2024-03-23T05:21:12;3.40;;;2.90;;
84187;SDS011;77358;45.648;13.764;2024-03-23T05:23:37;3.53;;;3.00;;
84187;SDS011;77358;45.648;13.764;2024-03-23T05:26:03;5.53;;;3.30;;
84187;SDS011;77358;45.648;13.764;2024-03-23T05:28:29;5.43;;;3.47;;
84187;SDS011;77358;45.648;13.764;2024-03-23T05:30:56;6.38;;;3.50;;
84187;SDS011;77358;45.648;13.764;2024-03-23T05:33:24;4.55;;;3.25;;
84187;SDS011;77358;45.648;13.764;2024-03-23T05:35:57;4.50;;;3.22;;
84187;SDS011;77358;45.648;13.764;2024-03-23T05:38:24;3.63;;;3.30;;
84187;SDS011;77358;45.648;13.764;2024-03-23T05:40:53;9.05;;;3.75;;
84187;SDS011;77358;45.648;13.764;2024-03-23T05:43:23;5.95;;;3.58;;
84187;SDS011;77358;45.648;13.764;2024-03-23T05:45:53;3.95;;;3.30;;
84187;SDS011;77358;45.648;13.764;2024-03-23T05:48:19;4.70;;;3.38;;
84187;SDS011;77358;45.648;13.764;2024-03-23T05:50:45;6.60;;;3.60;;
84187;SDS011;77358;45.648;13.764;2024-03-23T05:53:11;3.95;;;3.53;;
84187;SDS011;77358;45.648;13.764;2024-03-23T05:55:38;5.80;;;3.72;;
84187;SDS011;77358;45.648;13.764;2024-03-23T05:58:03;5.40;;;4.10;;
84187;SDS011;77358;45.648;13.764;2024-03-23T06:00:29;7.18;;;3.75;;
84187;SDS011;77358;45.648;13.764;2024-03-23T06:02:55;5.82;;;3.90;;
84187;SDS011;77358;45.648;13.764;2024-03-23T06:05:21;4.30;;;3.90;;
84187;SDS011;77358;45.648;13.764;2024-03-23T06:07:49;5.35;;;3.50;;
84187;SDS011;77358;45.648;13.764;2024-03-23T06:10:15;8.77;;;4.15;;
84187;SDS011;77358;45.648;13.764;2024-03-23T06:12:41;6.70;;;3.80;;
84187;SDS011;77358;45.648;13.764;2024-03-23T06:15:07;6.05;;;3.50;;
84187;SDS011;77358;45.648;13.764;2024-03-23T06:17:35;5.68;;;3.80;;
84187;SDS011;77358;45.648;13.764;2024-03-23T06:20:01;3.75;;;3.45;;
84187;SDS011;77358;45.648;13.764;2024-03-23T06:22:28;4.90;;;3.97;;
84187;SDS011;77358;45.648;13.764;2024-03-23T06:24:53;4.45;;;4.05;;
84187;SDS011;77358;45.648;13.764;2024-03-23T06:27:19;5.97;;;3.97;;
84187;SDS011;77358;45.648;13.764;2024-03-23T06:29:45;5.93;;;3.80;;
84187;SDS011;77358;45.648;13.764;2024-03-23T06:32:11;6.80;;;3.97;;
84187;SDS011;77358;45.648;13.764;2024-03-23T06:34:38;5.10;;;4.00;;
84187;SDS011;77358;45.648;13.764;2024-03-23T06:37:07;6.30;;;2.95;;
84187;SDS011;77358;45.648;13.764;2024-03-23T06:39:34;9.32;;;2.72;;
84187;SDS011;77358;45.648;13.764;2024-03-23T06:42:00;3.50;;;2.10;;
84187;SDS011;77358;45.648;13.764;2024-03-23T06:44:26;5.32;;;2.50;;
84187;SDS011;77358;45.648;13.764;2024-03-23T06:46:52;7.05;;;2.20;;
84187;SDS011;77358;45.648;13.764;2024-03-23T06:49:18;3.65;;;2.50;;
84187;SDS011;77358;45.648;13.764;2024-03-23T06:51:45;3.33;;;2.00;;
84187;SDS011;77358;45.648;13.764;2024-03-23T06:54:10;3.05;;;2.50;;
84187;SDS011;77358;45.648;13.764;2024-03-23T06:56:36;4.13;;;2.00;;
84187;SDS011;77358;45.648;13.764;2024-03-23T06:59:02;2.88;;;1.67;;
84187;SDS011;77358;45.648;13.764;2024-03-23T07:01:28;4.63;;;2.13;;
84187;SDS011;77358;45.648;13.764;2024-03-23T07:03:54;3.40;;;1.92;;
84187;SDS011;77358;45.648;13.764;2024-03-23T07:06:20;1.80;;;1.70;;
84187;SDS011;77358;45.648;13.764;2024-03-23T07:08:46;1.90;;;1.80;;
84187;SDS011;77358;45.648;13.764;2024-03-23T07:11:11;1.98;;;1.80;;
84187;SDS011;77358;45.648;13.764;2024-03-23T07:13:37;2.30;;;1.73;;
84187;SDS011;77358;45.648;13.764;2024-03-23T07:16:04;3.63;;;1.80;;
84187;SDS011;77358;45.648;13.764;2024-03-23T07:18:31;4.65;;;2.05;;
84187;SDS011;77358;45.648;13.764;2024-03-23T07:20:57;2.13;;;1.92;;
84187;SDS011;77358;45.648;13.764;2024-03-23T07:23:23;2.72;;;1.95;;
84187;SDS011;77358;45.648;13.764;2024-03-23T07:28:43;2.20;;;2.00;;
84187;SDS011;77358;45.648;13.764;2024-03-23T07:31:17;2.78;;;1.85;;
84187;SDS011;77358;45.648;13.764;2024-03-23T07:33:43;2.17;;;1.88;;
84187;SDS011;77358;45.648;13.764;2024-03-23T07:36:14;3.03;;;1.73;;
84187;SDS011;77358;45.648;13.764;2024-03-23T07:38:41;2.28;;;1.67;;
84187;SDS011;77358;45.648;13.764;2024-03-23T07:41:10;3.25;;;1.85;;
84187;SDS011;77358;45.648;13.764;2024-03-23T07:43:40;4.75;;;1.60;;
84187;SDS011;77358;45.648;13.764;2024-03-23T07:46:05;2.67;;;1.80;;
84187;SDS011;77358;45.648;13.764;2024-03-23T07:48:31;2.33;;;1.40;;
84187;SDS011;77358;45.648;13.764;2024-03-23T07:50:58;3.97;;;1.73;;
84187;SDS011;77358;45.648;13.764;2024-03-23T07:53:27;4.68;;;1.80;;
84187;SDS011;77358;45.648;13.764;2024-03-23T07:55:54;2.05;;;1.50;;
84187;SDS011;77358;45.648;13.764;2024-03-23T07:58:32;4.35;;;1.75;;
84187;SDS011;77358;45.648;13.764;2024-03-23T08:03:53;5.10;;;1.77;;
84187;SDS011;77358;45.648;13.764;2024-03-23T08:06:19;5.63;;;1.80;;
84187;SDS011;77358;45.648;13.764;2024-03-23T08:08:48;4.13;;;1.88;;
84187;SDS011;77358;45.648;13.764;2024-03-23T08:11:16;6.07;;;1.40;;
84187;SDS011;77358;45.648;13.764;2024-03-23T08:13:42;4.22;;;1.90;;
84187;SDS011;77358;45.648;13.764;2024-03-23T08:16:10;10.10;;;2.25;;
84187;SDS011;77358;45.648;13.764;2024-03-23T08:18:36;4.00;;;2.83;;
84187;SDS011;77358;45.648;13.764;2024-03-23T08:21:02;2.38;;;2.03;;
84187;SDS011;77358;45.648;13.764;2024-03-23T08:23:31;1.88;;;1.70;;
84187;SDS011;77358;45.648;13.764;2024-03-23T08:26:03;3.50;;;3.10;;
84187;SDS011;77358;45.648;13.764;2024-03-23T08:28:30;3.05;;;1.70;;
84187;SDS011;77358;45.648;13.764;2024-03-23T08:30:56;4.47;;;2.10;;
84187;SDS011;77358;45.648;13.764;2024-03-23T08:33:23;3.40;;;1.80;;
84187;SDS011;77358;45.648;13.764;2024-03-23T08:35:59;2.53;;;2.00;;
84187;SDS011;77358;45.648;13.764;2024-03-23T08:38:44;2.47;;;2.28;;
84187;SDS011;77358;45.648;13.764;2024-03-23T08:41:10;1.60;;;1.50;;
84187;SDS011;77358;45.648;13.764;2024-03-23T08:43:40;1.90;;;1.80;;
84187;SDS011;77358;45.648;13.764;2024-03-23T08:46:07;2.40;;;1.98;;
84187;SDS011;77358;45.648;13.764;2024-03-23T08:48:43;3.50;;;2.15;;
84187;SDS011;77358;45.648;13.764;2024-03-23T08:51:11;3.58;;;2.20;;
84187;SDS011;77358;45.648;13.764;2024-03-23T08:53:37;5.80;;;3.60;;
84187;SDS011;77358;45.648;13.764;2024-03-23T08:56:04;5.68;;;3.22;;
84187;SDS011;77358;45.648;13.764;2024-03-23T08:58:32;3.53;;;2.50;;
84187;SDS011;77358;45.648;13.764;2024-03-23T09:01:05;3.30;;;2.35;;
84187;SDS011;77358;45.648;13.764;2024-03-23T09:03:32;3.10;;;2.40;;
84187;SDS011;77358;45.648;13.764;2024-03-23T09:05:59;4.50;;;2.45;;
84187;SDS011;77358;45.648;13.764;2024-03-23T09:08:24;2.90;;;2.60;;
84187;SDS011;77358;45.648;13.764;2024-03-23T09:10:51;2.70;;;2.50;;
84187;SDS011;77358;45.648;13.764;2024-03-23T09:13:17;4.18;;;3.40;;
84187;SDS011;77358;45.648;13.764;2024-03-23T09:15:47;3.85;;;3.17;;
84187;SDS011;77358;45.648;13.764;2024-03-23T09:18:16;4.65;;;3.20;;
84187;SDS011;77358;45.648;13.764;2024-03-23T09:20:42;5.80;;;2.30;;
84187;SDS011;77358;45.648;13.764;2024-03-23T09:23:08;2.42;;;1.83;;
84187;SDS011;77358;45.648;13.764;2024-03-23T09:25:37;10.05;;;2.65;;
84187;SDS011;77358;45.648;13.764;2024-03-23T09:28:03;7.82;;;2.03;;
84187;SDS011;77358;45.648;13.764;2024-03-23T09:30:31;6.70;;;2.38;;
84187;SDS011;77358;45.648;13.764;2024-03-23T09:32:58;4.90;;;2.38;;
84187;SDS011;77358;45.648;13.764;2024-03-23T09:35:24;3.17;;;2.40;;
84187;SDS011;77358;45.648;13.764;2024-03-23T09:37:50;2.50;;;2.30;;
84187;SDS011;77358;45.648;13.764;2024-03-23T09:40:16;4.13;;;2.65;;
84187;SDS011;77358;45.648;13.764;2024-03-23T09:42:42;7.80;;;3.00;;
84187;SDS011;77358;45.648;13.764;2024-03-23T09:45:21;4.95;;;2.90;;
84187;SDS011;77358;45.648;13.764;2024-03-23T09:47:51;5.68;;;2.72;;
84187;SDS011;77358;45.648;13.764;2024-03-23T09:50:18;4.53;;;2.42;;
84187;SDS011;77358;45.648;13.764;2024-03-23T09:52:45;4.78;;;2.47;;
84187;SDS011;77358;45.648;13.764;2024-03-23T09:55:11;2.28;;;2.00;;
84187;SDS011;77358;45.648;13.764;2024-03-23T09:57:38;5.28;;;2.25;;
84187;SDS011;77358;45.648;13.764;2024-03-23T10:00:04;2.88;;;2.47;;
84187;SDS011;77358;45.648;13.764;2024-03-23T10:02:31;2.35;;;2.10;;
84187;SDS011;77358;45.648;13.764;2024-03-23T10:04:57;3.15;;;2.35;;
84187;SDS011;77358;45.648;13.764;2024-03-23T10:07:23;3.70;;;2.40;;
84187;SDS011;77358;45.648;13.764;2024-03-23T10:09:49;3.45;;;2.40;;
84187;SDS011;77358;45.648;13.764;2024-03-23T10:12:18;3.97;;;2.67;;
84187;SDS011;77358;45.648;13.764;2024-03-23T10:14:45;2.58;;;2.38;;
84187;SDS011;77358;45.648;13.764;2024-03-23T10:19:46;2.13;;;1.92;;
84187;SDS011;77358;45.648;13.764;2024-03-23T10:22:18;2.55;;;2.35;;
84187;SDS011;77358;45.648;13.764;2024-03-23T10:24:46;3.88;;;2.38;;
84187;SDS011;77358;45.648;13.764;2024-03-23T10:27:15;2.67;;;2.47;;
84187;SDS011;77358;45.648;13.764;2024-03-23T10:29:42;2.83;;;2.58;;
84187;SDS011;77358;45.648;13.764;2024-03-23T10:32:12;6.90;;;2.50;;
84187;SDS011;77358;45.648;13.764;2024-03-23T10:34:39;3.58;;;2.80;;
84187;SDS011;77358;45.648;13.764;2024-03-23T10:37:05;2.72;;;2.53;;
84187;SDS011;77358;45.648;13.764;2024-03-23T10:39:35;4.70;;;3.10;;
84187;SDS011;77358;45.648;13.764;2024-03-23T10:42:03;4.25;;;3.80;;
84187;SDS011;77358;45.648;13.764;2024-03-23T10:44:29;10.30;;;4.38;;
84187;SDS011;77358;45.648;13.764;2024-03-23T10:46:56;10.40;;;7.15;;
84187;SDS011;77358;45.648;13.764;2024-03-23T10:49:29;9.82;;;7.15;;
84187;SDS011;77358;45.648;13.764;2024-03-23T10:51:56;8.85;;;7.93;;
84187;SDS011;77358;45.648;13.764;2024-03-23T10:54:23;12.00;;;9.70;;
84187;SDS011;77358;45.648;13.764;2024-03-23T10:56:51;9.90;;;8.45;;
84187;SDS011;77358;45.648;13.764;2024-03-23T10:59:23;10.82;;;9.20;;
84187;SDS011;77358;45.648;13.764;2024-03-23T11:01:56;12.18;;;9.32;;
84187;SDS011;77358;45.648;13.764;2024-03-23T11:04:29;10.85;;;9.68;;
84187;SDS011;77358;45.648;13.764;2024-03-23T11:06:57;12.13;;;9.68;;
84187;SDS011;77358;45.648;13.764;2024-03-23T11:09:42;15.25;;;9.60;;
84187;SDS011;77358;45.648;13.764;2024-03-23T11:15:13;14.57;;;10.82;;
84187;SDS011;77358;45.648;13.764;2024-03-23T11:17:39;11.45;;;10.30;;
84187;SDS011;77358;45.648;13.764;2024-03-23T11:20:06;10.88;;;9.43;;
84187;SDS011;77358;45.648;13.764;2024-03-23T11:25:03;12.32;;;9.98;;
84187;SDS011;77358;45.648;13.764;2024-03-23T11:27:29;12.98;;;10.43;;
84187;SDS011;77358;45.648;13.764;2024-03-23T11:30:09;14.88;;;11.05;;
84187;SDS011;77358;45.648;13.764;2024-03-23T11:32:42;14.07;;;11.07;;
84187;SDS011;77358;45.648;13.764;2024-03-23T11:35:09;14.18;;;11.20;;
84187;SDS011;77358;45.648;13.764;2024-03-23T11:37:35;13.52;;;11.15;;
84187;SDS011;77358;45.648;13.764;2024-03-23T11:40:15;13.50;;;10.93;;
84187;SDS011;77358;45.648;13.764;2024-03-23T11:45:08;12.07;;;10.85;;
84187;SDS011;77358;45.648;13.764;2024-03-23T11:47:34;14.32;;;11.82;;
84187;SDS011;77358;45.648;13.764;2024-03-23T11:50:00;18.08;;;12.63;;
84187;SDS011;77358;45.648;13.764;2024-03-23T11:52:26;17.67;;;12.25;;
84187;SDS011;77358;45.648;13.764;2024-03-23T11:55:02;14.63;;;12.13;;
84187;SDS011;77358;45.648;13.764;2024-03-23T11:57:29;13.70;;;12.27;;
84187;SDS011;77358;45.648;13.764;2024-03-23T11:59:56;17.52;;;12.77;;
84187;SDS011;77358;45.648;13.764;2024-03-23T12:02:22;16.08;;;12.50;;
84187;SDS011;77358;45.648;13.764;2024-03-23T12:04:48;14.43;;;12.13;;
84187;SDS011;77358;45.648;13.764;2024-03-23T12:07:17;15.90;;;12.68;;
84187;SDS011;77358;45.648;13.764;2024-03-23T12:09:44;21.07;;;13.17;;
84187;SDS011;77358;45.648;13.764;2024-03-23T12:12:14;16.92;;;13.25;;
84187;SDS011;77358;45.648;13.764;2024-03-23T12:14:41;15.50;;;12.77;;
84187;SDS011;77358;45.648;13.764;2024-03-23T12:19:40;21.58;;;14.13;;
84187;SDS011;77358;45.648;13.764;2024-03-23T12:22:07;14.50;;;13.00;;
84187;SDS011;77358;45.648;13.764;2024-03-23T12:24:33;20.60;;;14.43;;
84187;SDS011;77358;45.648;13.764;2024-03-23T12:27:02;22.02;;;13.45;;
84187;SDS011;77358;45.648;13.764;2024-03-23T12:29:31;19.48;;;14.10;;
84187;SDS011;77358;45.648;13.764;2024-03-23T12:32:00;20.13;;;13.95;;
84187;SDS011;77358;45.648;13.764;2024-03-23T12:34:27;19.20;;;13.90;;
84187;SDS011;77358;45.648;13.764;2024-03-23T12:36:53;18.40;;;13.32;;
84187;SDS011;77358;45.648;13.764;2024-03-23T12:39:20;20.88;;;13.23;;
84187;SDS011;77358;45.648;13.764;2024-03-23T12:41:49;18.30;;;14.27;;
84187;SDS011;77358;45.648;13.764;2024-03-23T12:44:15;21.75;;;13.15;;
84187;SDS011;77358;45.648;13.764;2024-03-23T12:46:41;20.35;;;13.98;;
84187;SDS011;77358;45.648;13.764;2024-03-23T12:49:07;30.45;;;15.88;;
84187;SDS011;77358;45.648;13.764;2024-03-23T12:51:33;18.50;;;13.90;;
84187;SDS011;77358;45.648;13.764;2024-03-23T12:53:59;21.60;;;14.00;;
84187;SDS011;77358;45.648;13.764;2024-03-23T12:56:25;27.33;;;16.25;;
84187;SDS011;77358;45.648;13.764;2024-03-23T12:58:51;25.05;;;15.02;;
84187;SDS011;77358;45.648;13.764;2024-03-23T13:01:18;22.33;;;14.38;;
84187;SDS011;77358;45.648;13.764;2024-03-23T13:03:45;22.10;;;14.32;;
84187;SDS011;77358;45.648;13.764;2024-03-23T13:06:15;22.77;;;14.07;;
84187;SDS011;77358;45.648;13.764;2024-03-23T13:08:41;27.27;;;16.00;;
84187;SDS011;77358;45.648;13.764;2024-03-23T13:11:09;22.00;;;14.27;;
84187;SDS011;77358;45.648;13.764;2024-03-23T13:13:35;23.42;;;16.02;;
84187;SDS011;77358;45.648;13.764;2024-03-23T13:16:01;18.10;;;13.38;;
84187;SDS011;77358;45.648;13.764;2024-03-23T13:18:28;21.25;;;13.15;;
84187;SDS011;77358;45.648;13.764;2024-03-23T13:20:54;19.73;;;13.30;;
84187;SDS011;77358;45.648;13.764;2024-03-23T13:23:21;27.70;;;16.42;;
84187;SDS011;77358;45.648;13.764;2024-03-23T13:25:54;20.42;;;14.63;;
84187;SDS011;77358;45.648;13.764;2024-03-23T13:28:21;21.63;;;15.48;;
84187;SDS011;77358;45.648;13.764;2024-03-23T13:30:51;16.70;;;13.45;;
84187;SDS011;77358;45.648;13.764;2024-03-23T13:33:17;19.98;;;11.70;;
84187;SDS011;77358;45.648;13.764;2024-03-23T13:35:52;15.80;;;11.35;;
84187;SDS011;77358;45.648;13.764;2024-03-23T13:38:19;15.05;;;10.18;;
84187;SDS011;77358;45.648;13.764;2024-03-23T13:40:52;11.85;;;10.52;;
84187;SDS011;77358;45.648;13.764;2024-03-23T13:43:18;13.50;;;10.18;;
84187;SDS011;77358;45.648;13.764;2024-03-23T13:45:46;16.17;;;10.07;;
84187;SDS011;77358;45.648;13.764;2024-03-23T13:48:12;26.25;;;12.75;;
84187;SDS011;77358;45.648;13.764;2024-03-23T13:50:38;24.42;;;12.00;;
84187;SDS011;77358;45.648;13.764;2024-03-23T13:53:04;14.15;;;10.77;;
84187;SDS011;77358;45.648;13.764;2024-03-23T13:55:31;13.27;;;10.48;;
84187;SDS011;77358;45.648;13.764;2024-03-23T13:57:56;16.80;;;11.38;;
84187;SDS011;77358;45.648;13.764;2024-03-23T14:00:22;16.13;;;10.43;;
84187;SDS011;77358;45.648;13.764;2024-03-23T14:02:48;14.50;;;9.60;;
84187;SDS011;77358;45.648;13.764;2024-03-23T14:05:14;11.85;;;8.52;;
84187;SDS011;77358;45.648;13.764;2024-03-23T14:07:41;20.38;;;10.48;;
84187;SDS011;77358;45.648;13.764;2024-03-23T14:10:08;18.45;;;11.30;;
84187;SDS011;77358;45.648;13.764;2024-03-23T14:12:35;13.90;;;9.07;;
84187;SDS011;77358;45.648;13.764;2024-03-23T14:15:04;12.07;;;9.23;;
84187;SDS011;77358;45.648;13.764;2024-03-23T14:17:31;15.23;;;8.57;;
84187;SDS011;77358;45.648;13.764;2024-03-23T14:19:57;13.43;;;8.55;;
84187;SDS011;77358;45.648;13.764;2024-03-23T14:22:26;12.85;;;8.98;;
84187;SDS011;77358;45.648;13.764;2024-03-23T14:24:53;13.73;;;8.27;;
84187;SDS011;77358;45.648;13.764;2024-03-23T14:27:18;9.93;;;8.38;;
84187;SDS011;77358;45.648;13.764;2024-03-23T14:29:47;16.48;;;9.00;;
84187;SDS011;77358;45.648;13.764;2024-03-23T14:32:13;16.95;;;8.43;;
84187;SDS011;77358;45.648;13.764;2024-03-23T14:34:39;9.40;;;7.90;;
84187;SDS011;77358;45.648;13.764;2024-03-23T14:37:06;9.98;;;7.30;;
84187;SDS011;77358;45.648;13.764;2024-03-23T14:39:32;12.65;;;8.07;;
84187;SDS011;77358;45.648;13.764;2024-03-23T14:41:59;11.13;;;8.45;;
84187;SDS011;77358;45.648;13.764;2024-03-23T14:44:27;13.07;;;8.95;;
84187;SDS011;77358;45.648;13.764;2024-03-23T14:46:53;10.73;;;8.20;;
84187;SDS011;77358;45.648;13.764;2024-03-23T14:49:20;19.27;;;8.27;;
84187;SDS011;77358;45.648;13.764;2024-03-23T14:51:46;15.73;;;8.57;;
84187;SDS011;77358;45.648;13.764;2024-03-23T14:54:11;13.55;;;8.50;;
84187;SDS011;77358;45.648;13.764;2024-03-23T14:56:38;16.30;;;8.63;;
84187;SDS011;77358;45.648;13.764;2024-03-23T14:59:04;11.88;;;8.10;;
84187;SDS011;77358;45.648;13.764;2024-03-23T15:01:31;9.98;;;7.75;;
84187;SDS011;77358;45.648;13.764;2024-03-23T15:03:57;12.05;;;7.57;;
84187;SDS011;77358;45.648;13.764;2024-03-23T15:06:22;11.80;;;6.95;;
84187;SDS011;77358;45.648;13.764;2024-03-23T15:08:48;12.95;;;7.30;;
84187;SDS011;77358;45.648;13.764;2024-03-23T15:11:14;12.50;;;6.65;;
84187;SDS011;77358;45.648;13.764;2024-03-23T15:13:43;5.22;;;3.92;;
84187;SDS011;77358;45.648;13.764;2024-03-23T15:16:08;7.72;;;4.25;;
84187;SDS011;77358;45.648;13.764;2024-03-23T15:18:34;4.88;;;3.92;;
84187;SDS011;77358;45.648;13.764;2024-03-23T15:21:01;4.82;;;4.43;;
84187;SDS011;77358;45.648;13.764;2024-03-23T15:23:31;4.53;;;3.80;;
84187;SDS011;77358;45.648;13.764;2024-03-23T15:25:57;6.75;;;4.10;;
84187;SDS011;77358;45.648;13.764;2024-03-23T15:28:24;4.70;;;4.20;;
84187;SDS011;77358;45.648;13.764;2024-03-23T15:31:11;8.65;;;4.10;;
84187;SDS011;77358;45.648;13.764;2024-03-23T15:33:38;4.47;;;4.07;;
84187;SDS011;77358;45.648;13.764;2024-03-23T15:36:04;5.68;;;4.30;;
84187;SDS011;77358;45.648;13.764;2024-03-23T15:38:31;12.48;;;4.20;;
84187;SDS011;77358;45.648;13.764;2024-03-23T15:40:58;5.38;;;3.90;;